Weather History for Wildwood, NJ

Change the Weather History Date:

Monday, March 25, 2013

  Actual Average Record
Temperature  
Mean Temperature 35 °F -  
Max Temperature 37 °F 52 °F 62 °F (2004)
Min Temperature 33 °F 37 °F 23 °F (2014)
Degree Days  
Heating Degree Days 30    
Moisture  
Dew Point 31 °F    
Average Humidity 85    
Maximum Humidity 93    
Minimum Humidity 70    
Precipitation  
Precipitation 0.86 in - - ()
Sea Level Pressure  
Sea Level Pressure 29.52 in    
Wind  
Wind Speed 12 mph (NNE)    
Max Wind Speed 17 mph    
Max Gust Speed 25 mph    
Visibility 7 miles    
Events      
Averages and records for this station are not official NWS values.
T = Trace of Precipitation, MM = Missing Value Source: NWS Daily Summary

Daily Weather History Graph

Daily Weather History Graph

Search for Another Location

Airport:

Trip Planner

Search our weather history database for the weather conditions in past years. The results will help you decide how hot, cold, wet, or windy it might be!

Date:

Astronomy

Mar. 25, 2013 Rise Set
Actual Time 6:54 AM EDT 7:16 PM EDT
Civil Twilight 6:28 AM EDT 7:43 PM EDT
Nautical Twilight 5:56 AM EDT 8:14 PM EDT
Astronomical Twilight 5:24 AM EDT 8:47 PM EDT
Moon 5:46 PM EDT (3/25) 5:36 AM EDT (3/25)
Length of Visible Light 13h 15m
Length of Day
12h 21m
Waxing Gibbous, 96% of the Moon is Illuminated
Mar 25
Waxing Gibbous
Mar 27
Full
Apr 3
Last Quarter
Apr 10
New
Apr 18
First Quarter

Hourly Weather History & Observations

Time (EDT) Temp. Windchill Dew Point Humidity Pressure Visibility Wind Dir Wind Speed Gust Speed Precip Events Conditions
12:15 AM 37.4 °F 30.8 °F 28.4 °F 70% 29.69 in 10.0 mi East 9.2 mph - N/A   Mostly Cloudy
12:35 AM 37.4 °F 29.8 °F 28.4 °F 70% 29.68 in 10.0 mi ENE 11.5 mph 16.1 mph N/A   Overcast
12:55 AM 35.6 °F 27.5 °F 30.2 °F 81% 29.66 in 10.0 mi East 11.5 mph - N/A   Overcast
1:15 AM 35.6 °F 27.5 °F 30.2 °F 81% 29.66 in 10.0 mi East 11.5 mph - 0.01 in   Overcast
1:35 AM 35.6 °F 27.1 °F 30.2 °F 81% 29.65 in 10.0 mi ENE 12.7 mph 16.1 mph 0.01 in   Overcast
1:55 AM 35.6 °F 27.5 °F 30.2 °F 81% 29.63 in 8.0 mi ENE 11.5 mph 18.4 mph 0.02 in   Overcast
2:15 AM 35.6 °F 26.6 °F 30.2 °F 81% 29.61 in 6.0 mi NE 13.8 mph - N/A   Overcast
2:35 AM 35.6 °F 26.2 °F 30.2 °F 81% 29.60 in 10.0 mi ENE 15.0 mph 24.2 mph N/A   Overcast
2:55 AM 35.6 °F 27.5 °F 30.2 °F 81% 29.58 in 10.0 mi ENE 11.5 mph - N/A   Overcast
3:15 AM 35.6 °F 28.0 °F 30.2 °F 81% 29.58 in 10.0 mi ENE 10.4 mph - N/A   Overcast
3:35 AM 35.6 °F 27.1 °F 32.0 °F 87% 29.57 in 10.0 mi ENE 12.7 mph 17.3 mph N/A   Overcast
3:55 AM 35.6 °F 27.5 °F 32.0 °F 87% 29.55 in 10.0 mi ENE 11.5 mph 18.4 mph N/A   Overcast
4:15 AM 37.4 °F 29.3 °F 32.0 °F 81% 29.54 in 10.0 mi NE 12.7 mph 16.1 mph N/A   Overcast
4:35 AM 37.4 °F 29.8 °F 32.0 °F 81% 29.53 in 10.0 mi ENE 11.5 mph 17.3 mph N/A   Overcast
4:55 AM 37.4 °F 29.3 °F 33.8 °F 87% 29.52 in 10.0 mi ENE 12.7 mph 17.3 mph N/A   Overcast
5:15 AM 37.4 °F 29.8 °F 33.8 °F 87% 29.52 in 5.0 mi ENE 11.5 mph 17.3 mph 0.01 in   Overcast
5:35 AM 37.4 °F 29.8 °F 33.8 °F 87% 29.51 in 7.0 mi ENE 11.5 mph - 0.03 in   Overcast
5:55 AM 37.4 °F 29.8 °F 33.8 °F 87% 29.51 in 8.0 mi ENE 11.5 mph 17.3 mph 0.05 in   Overcast
6:15 AM 37.4 °F 29.3 °F 33.8 °F 87% 29.51 in 8.0 mi ENE 12.7 mph 20.7 mph 0.04 in   Overcast
6:35 AM 37.4 °F 30.3 °F 33.8 °F 87% 29.51 in 8.0 mi ENE 10.4 mph - 0.06 in   Overcast
6:55 AM 37.4 °F 29.8 °F 33.8 °F 87% 29.51 in 7.0 mi NE 11.5 mph 17.3 mph 0.11 in   Overcast
7:15 AM 37.4 °F 28.2 °F 33.8 °F 87% 29.51 in 5.0 mi NE 16.1 mph 20.7 mph 0.03 in   Overcast
7:35 AM 37.4 °F 29.8 °F 33.8 °F 87% 29.52 in 5.0 mi NE 11.5 mph 16.1 mph 0.07 in   Overcast
7:55 AM 35.6 °F 26.6 °F 32.0 °F 87% 29.52 in 5.0 mi NE 13.8 mph 20.7 mph 0.12 in   Overcast
8:15 AM 35.6 °F 27.1 °F 30.2 °F 81% 29.51 in 4.0 mi NNE 12.7 mph - 0.04 in   Overcast
8:35 AM 33.8 °F 24.3 °F 30.2 °F 87% 29.50 in 5.0 mi NNE 13.8 mph 18.4 mph 0.06 in   Overcast
8:55 AM 33.8 °F 25.3 °F 30.2 °F 87% 29.49 in 4.0 mi NNE 11.5 mph 18.4 mph 0.08 in   Overcast
9:15 AM 33.8 °F 23.9 °F 30.2 °F 87% 29.48 in 5.0 mi NNE 15.0 mph 20.7 mph 0.01 in   Overcast
9:35 AM 33.8 °F 24.3 °F 30.2 °F 87% 29.47 in 9.0 mi NNE 13.8 mph 19.6 mph 0.02 in   Overcast
9:55 AM 33.8 °F 24.8 °F 30.2 °F 87% 29.47 in 5.0 mi NNE 12.7 mph 19.6 mph 0.03 in   Overcast
10:15 AM 33.8 °F 24.3 °F 30.2 °F 87% 29.46 in 4.0 mi NNE 13.8 mph 20.7 mph 0.01 in   Overcast
10:35 AM 33.8 °F 24.8 °F 30.2 °F 87% 29.45 in 8.0 mi NNE 12.7 mph 21.9 mph 0.02 in   Overcast
10:55 AM 35.6 °F 26.2 °F 30.2 °F 81% 29.44 in 9.0 mi NNE 15.0 mph 24.2 mph 0.03 in   Overcast
11:15 AM 35.6 °F 26.2 °F 30.2 °F 81% 29.43 in 9.0 mi NNE 15.0 mph 25.3 mph N/A   Overcast
11:35 AM 35.6 °F 25.9 °F 30.2 °F 81% 29.43 in 3.0 mi NNE 16.1 mph 25.3 mph 0.02 in   Overcast
11:55 AM 35.6 °F 25.5 °F 30.2 °F 81% 29.42 in 5.0 mi NNE 17.3 mph 24.2 mph 0.04 in   Overcast
12:15 PM 35.6 °F 25.9 °F 32.0 °F 87% 29.41 in 8.0 mi NNE 16.1 mph 24.2 mph 0.01 in   Overcast
12:35 PM 35.6 °F 27.1 °F 32.0 °F 87% 29.41 in 6.0 mi NNE 12.7 mph - 0.02 in   Overcast
12:55 PM 35.6 °F 27.5 °F 32.0 °F 87% 29.41 in 5.0 mi NNE 11.5 mph - 0.03 in   Overcast
1:15 PM 35.6 °F 27.1 °F 32.0 °F 87% 29.42 in 8.0 mi NNE 12.7 mph 17.3 mph 0.01 in   Overcast
1:35 PM 35.6 °F 26.2 °F 30.2 °F 81% 29.42 in 8.0 mi NNE 15.0 mph - 0.04 in   Overcast
1:55 PM 35.6 °F 26.6 °F 32.0 °F 87% 29.42 in 8.0 mi North 13.8 mph 17.3 mph 0.06 in   Overcast
2:15 PM 35.6 °F 27.5 °F 32.0 °F 87% 29.41 in 5.0 mi North 11.5 mph - 0.03 in   Overcast
2:35 PM 35.6 °F 28.0 °F 32.0 °F 87% 29.41 in 4.0 mi North 10.4 mph - 0.04 in   Overcast
2:55 PM 33.8 °F 26.4 °F 30.2 °F 87% 29.42 in 2.0 mi NNW 9.2 mph - 0.06 in   Overcast
3:15 PM 33.8 °F 26.4 °F 30.2 °F 87% 29.42 in 1.2 mi NNW 9.2 mph - 0.01 in   Overcast
3:35 PM 33.8 °F 27.7 °F 30.2 °F 87% 29.43 in 1.0 mi NW 6.9 mph - 0.02 in   Overcast
3:55 PM 33.8 °F 27.7 °F 30.2 °F 87% 29.43 in 1.8 mi NNW 6.9 mph - 0.03 in   Overcast
4:15 PM 33.8 °F 27.7 °F 30.2 °F 87% 29.43 in 1.5 mi NNW 6.9 mph - 0.02 in   Overcast
4:35 PM 33.8 °F 26.4 °F 30.2 °F 87% 29.44 in 2.5 mi NNW 9.2 mph - 0.05 in   Overcast
4:55 PM 33.8 °F 26.4 °F 30.2 °F 87% 29.45 in 3.0 mi North 9.2 mph - 0.08 in   Overcast
5:15 PM 33.8 °F 27.0 °F 30.2 °F 87% 29.46 in 7.0 mi North 8.1 mph - 0.02 in   Overcast
5:35 PM 33.8 °F 26.4 °F 30.2 °F 87% 29.47 in 2.5 mi North 9.2 mph - 0.03 in   Overcast
5:55 PM 35.6 °F 28.6 °F 30.2 °F 81% 29.48 in 9.0 mi North 9.2 mph - 0.04 in   Overcast
6:15 PM 35.6 °F 28.6 °F 30.2 °F 81% 29.49 in 7.0 mi NNW 9.2 mph 17.3 mph 0.01 in   Overcast
6:35 PM 35.6 °F 29.2 °F 30.2 °F 81% 29.51 in 9.0 mi NW 8.1 mph - 0.02 in   Overcast
6:55 PM 35.6 °F 28.0 °F 32.0 °F 87% 29.53 in 10.0 mi NW 10.4 mph 18.4 mph 0.03 in   Overcast
7:15 PM 35.6 °F 27.5 °F 32.0 °F 87% 29.54 in 10.0 mi NW 11.5 mph - 0.01 in   Overcast
7:35 PM 35.6 °F 28.0 °F 32.0 °F 87% 29.55 in 10.0 mi NNW 10.4 mph 16.1 mph 0.01 in   Overcast
7:55 PM 35.6 °F 29.2 °F 32.0 °F 87% 29.56 in 10.0 mi NW 8.1 mph 16.1 mph 0.01 in   Overcast
8:15 PM 35.6 °F 29.2 °F 32.0 °F 87% 29.57 in 10.0 mi NW 8.1 mph 17.3 mph 0.01 in   Overcast
8:35 PM 35.6 °F 27.5 °F 32.0 °F 87% 29.58 in 10.0 mi NW 11.5 mph 18.4 mph 0.01 in   Overcast
8:55 PM 35.6 °F 29.9 °F 32.0 °F 87% 29.60 in 10.0 mi NW 6.9 mph 17.3 mph 0.02 in   Overcast
9:15 PM 35.6 °F 27.5 °F 32.0 °F 87% 29.61 in 10.0 mi NW 11.5 mph 19.6 mph N/A   Overcast
9:35 PM 35.6 °F 28.0 °F 32.0 °F 87% 29.61 in 10.0 mi NW 10.4 mph 17.3 mph 0.01 in   Overcast
9:55 PM 37.4 °F 30.8 °F 33.8 °F 87% 29.62 in 10.0 mi WNW 9.2 mph 17.3 mph 0.01 in   Overcast
10:15 PM 37.4 °F 30.3 °F 33.8 °F 87% 29.63 in 10.0 mi NW 10.4 mph 18.4 mph N/A   Overcast
10:35 PM 37.4 °F 29.3 °F 33.8 °F 87% 29.63 in 8.0 mi WNW 12.7 mph 20.7 mph N/A   Overcast
10:55 PM 37.4 °F 29.3 °F 33.8 °F 87% 29.63 in 9.0 mi WNW 12.7 mph 18.4 mph N/A   Overcast
11:15 PM 37.4 °F 29.3 °F 33.8 °F 87% 29.64 in 10.0 mi WNW 12.7 mph 18.4 mph 0.01 in   Overcast
11:35 PM 35.6 °F 27.5 °F 33.8 °F 93% 29.64 in 8.0 mi WNW 11.5 mph 20.7 mph 0.01 in   Overcast
11:55 PM 35.6 °F 27.1 °F 33.8 °F 93% 29.65 in 9.0 mi WNW 12.7 mph 17.3 mph 0.01 in   Overcast